Time;durP1;ratioP1;P1;durP2;ratioP2;P2;SDS_P1;SDS_P2;PMS_P1;PMS_P2;Temp;Humidity;BMP_temperature;BMP_pressure;BME280_temperature;BME280_humidity;BME280_pressure;Samples;Min_cycle;Max_cycle;Signal;HPM_P1;HPM_P2
2022/04/24 00:00:27;;;;;;;13.77;7.88;;;21.70;99.90;;;;;;5074674;28;20170;-52
2022/04/24 00:02:53;;;;;;;12.95;8.13;;;21.70;99.90;;;;;;5074013;28;20036;-52
2022/04/24 00:05:19;;;;;;;11.82;7.82;;;21.70;99.90;;;;;;5073964;28;20038;-52
2022/04/24 00:07:45;;;;;;;12.05;7.72;;;21.70;99.90;;;;;;5074206;28;20032;-52
2022/04/24 00:10:10;;;;;;;11.18;7.88;;;21.70;99.90;;;;;;5074033;28;20106;-52
2022/04/24 00:12:36;;;;;;;13.07;8.73;;;21.70;99.90;;;;;;5059844;28;20032;-52
2022/04/24 00:15:03;;;;;;;11.65;7.88;;;21.70;99.90;;;;;;5074029;28;20089;-52
2022/04/24 00:17:28;;;;;;;14.68;8.15;;;21.70;99.90;;;;;;5072579;28;20044;-52
2022/04/24 00:19:54;;;;;;;11.55;8.20;;;21.70;99.90;;;;;;5073964;28;20106;-52
2022/04/24 00:22:20;;;;;;;12.45;7.80;;;21.70;99.90;;;;;;5073791;28;20032;-53
2022/04/24 00:24:46;;;;;;;13.45;9.20;;;21.70;99.90;;;;;;5073806;28;20039;-52
2022/04/24 00:27:12;;;;;;;13.73;8.93;;;21.70;99.90;;;;;;5072681;28;20487;-52
2022/04/24 00:29:38;;;;;;;12.95;8.70;;;21.70;99.90;;;;;;5072165;28;20482;-53
2022/04/24 00:32:05;;;;;;;13.00;9.13;;;21.70;99.90;;;;;;5073630;28;20033;-52
2022/04/24 00:34:31;;;;;;;14.10;8.55;;;21.70;99.90;;;;;;5073493;28;20018;-52
2022/04/24 00:36:56;;;;;;;11.18;8.02;;;21.70;99.90;;;;;;5073704;28;20056;-52
2022/04/24 00:39:22;;;;;;;10.68;7.90;;;21.70;99.90;;;;;;5073426;28;20052;-52
2022/04/24 00:41:49;;;;;;;11.82;8.23;;;21.70;99.90;;;;;;5073393;28;20070;-52
2022/04/24 00:44:17;;;;;;;12.93;8.82;;;21.70;99.90;;;;;;5073623;28;20082;-52
2022/04/24 00:47:00;;;;;;;13.15;8.68;;;21.70;99.90;;;;;;5073405;28;20047;-52
2022/04/24 00:49:26;;;;;;;15.68;9.02;;;21.70;99.90;;;;;;5073178;28;20056;-52
2022/04/24 00:51:53;;;;;;;13.63;8.73;;;21.70;99.90;;;;;;5073247;28;20020;-52
2022/04/24 00:54:19;;;;;;;12.18;8.10;;;21.70;99.90;;;;;;5073464;28;20025;-52
2022/04/24 00:56:45;;;;;;;12.57;8.68;;;21.70;99.90;;;;;;5073296;28;20509;-51
2022/04/24 00:59:13;;;;;;;13.43;8.63;;;21.70;99.90;;;;;;5073731;28;20020;-52
2022/04/24 01:01:40;;;;;;;13.13;8.75;;;21.70;99.90;;;;;;5072784;28;20056;-52
2022/04/24 01:04:07;;;;;;;;;;;21.60;99.90;;;;;;5073506;28;20041;-53
2022/04/24 01:06:36;;;;;;;15.20;9.35;;;21.70;99.90;;;;;;5071641;28;19905;-52
2022/04/24 01:09:30;;;;;;;14.73;9.30;;;21.70;99.90;;;;;;5072992;28;20036;-52
2022/04/24 01:11:56;;;;;;;14.55;9.23;;;21.70;99.90;;;;;;5057113;28;20122;-52
2022/04/24 01:14:25;;;;;;;10.77;8.25;;;21.70;99.90;;;;;;5071255;28;20024;-52
2022/04/24 01:16:51;;;;;;;12.07;8.98;;;21.70;99.90;;;;;;5072891;28;20020;-52
2022/04/24 01:19:18;;;;;;;12.50;8.70;;;21.60;99.90;;;;;;5072947;28;20032;-52
2022/04/24 01:21:45;;;;;;;12.40;8.63;;;21.60;99.90;;;;;;5072908;28;20020;-52
2022/04/24 01:24:12;;;;;;;13.18;8.68;;;21.60;99.90;;;;;;5072523;28;20028;-51
2022/04/24 01:26:38;;;;;;;14.23;9.20;;;21.60;99.90;;;;;;5072610;28;20377;-52
2022/04/24 01:29:05;;;;;;;12.95;7.97;;;21.70;99.90;;;;;;5072469;28;20032;-52
2022/04/24 01:31:34;;;;;;;13.65;9.23;;;21.60;99.90;;;;;;5071436;28;20149;-51
2022/04/24 01:34:00;;;;;;;12.77;8.73;;;21.70;99.90;;;;;;5071400;28;20020;-51
2022/04/24 01:36:26;;;;;;;13.57;8.90;;;21.60;99.90;;;;;;5072312;28;20173;-51
2022/04/24 01:38:52;;;;;;;13.07;8.95;;;21.60;99.90;;;;;;5072438;28;20024;-51
2022/04/24 01:41:18;;;;;;;13.85;9.15;;;21.60;99.90;;;;;;5071529;28;20024;-52
2022/04/24 01:43:44;;;;;;;12.35;8.50;;;21.60;99.90;;;;;;5071002;28;20064;-52
2022/04/24 01:46:11;;;;;;;13.27;8.98;;;21.60;99.90;;;;;;5072050;28;20024;-51
2022/04/24 01:48:37;;;;;;;12.93;8.57;;;21.60;99.90;;;;;;5072010;28;20029;-52
2022/04/24 01:51:04;;;;;;;13.38;8.63;;;21.60;99.90;;;;;;5072486;28;20073;-51
2022/04/24 01:53:31;;;;;;;12.40;8.68;;;21.60;99.90;;;;;;5071892;28;20017;-52
2022/04/24 01:56:02;;;;;;;12.75;8.57;;;21.60;99.90;;;;;;5071971;28;20123;-51
2022/04/24 01:58:28;;;;;;;13.23;8.38;;;21.60;99.90;;;;;;5071814;28;20036;-52
2022/04/24 02:00:54;;;;;;;11.27;7.82;;;21.60;99.90;;;;;;5072453;28;20479;-52
2022/04/24 02:03:22;;;;;;;12.88;8.75;;;21.60;99.90;;;;;;5071596;28;20044;-52
2022/04/24 02:05:48;;;;;;;13.85;8.25;;;21.60;99.90;;;;;;5071965;28;20027;-52
2022/04/24 02:08:14;;;;;;;10.95;7.85;;;21.60;99.90;;;;;;5057577;28;20033;-52
2022/04/24 02:10:41;;;;;;;14.68;8.82;;;21.60;99.90;;;;;;5068456;28;20438;-52
2022/04/24 02:13:07;;;;;;;10.48;7.53;;;21.60;99.90;;;;;;5061111;28;20033;-52
2022/04/24 02:15:33;;;;;;;11.13;6.90;;;21.60;99.90;;;;;;5071655;28;20036;-52
2022/04/24 02:18:00;;;;;;;11.15;7.47;;;21.60;99.90;;;;;;5071511;28;20044;-52
2022/04/24 02:20:26;;;;;;;11.55;7.97;;;21.60;99.90;;;;;;5070282;28;20495;-52
2022/04/24 02:22:55;;;;;;;10.32;7.95;;;21.60;99.90;;;;;;5071324;28;20093;-52
2022/04/24 02:25:21;;;;;;;10.98;8.35;;;21.60;99.90;;;;;;5071553;28;20082;-52
2022/04/24 02:27:47;;;;;;;11.77;7.00;;;21.60;99.90;;;;;;5069823;28;20032;-52
2022/04/24 02:30:13;;;;;;;11.80;7.97;;;21.60;99.90;;;;;;5071599;28;20107;-52
2022/04/24 02:32:39;;;;;;;11.15;7.75;;;21.60;99.90;;;;;;5071196;28;20012;-52
2022/04/24 02:35:05;;;;;;;11.18;8.18;;;21.60;99.90;;;;;;5071541;28;20037;-52
2022/04/24 02:37:32;;;;;;;12.10;7.55;;;21.60;99.90;;;;;;5071154;28;20357;-52
2022/04/24 02:39:58;;;;;;;11.27;7.18;;;21.60;99.90;;;;;;5071197;28;20082;-52
2022/04/24 02:42:25;;;;;;;9.75;7.05;;;21.50;99.90;;;;;;5071374;28;20432;-51
2022/04/24 02:44:51;;;;;;;10.60;7.47;;;21.60;99.90;;;;;;5071042;28;20421;-51
2022/04/24 02:47:17;;;;;;;9.23;7.35;;;21.60;99.90;;;;;;5071073;28;20704;-52
2022/04/24 02:49:42;;;;;;;11.43;7.50;;;21.50;99.90;;;;;;5071121;28;20020;-52
2022/04/24 02:52:08;;;;;;;10.93;7.50;;;21.60;99.90;;;;;;5070735;28;20051;-51
2022/04/24 02:54:34;;;;;;;11.07;7.20;;;21.60;99.90;;;;;;5070983;28;20089;-51
2022/04/24 02:57:00;;;;;;;9.73;7.00;;;21.50;99.90;;;;;;5071013;28;20495;-51
2022/04/24 02:59:27;;;;;;;11.55;7.70;;;21.50;99.90;;;;;;5084100;22;20417;-45
2022/04/24 03:01:54;;;;;;;10.40;7.28;;;21.60;99.90;;;;;;5109936;28;20113;-46
2022/04/24 03:04:20;;;;;;;11.77;7.22;;;21.50;99.90;;;;;;5111699;28;20027;-46
2022/04/24 03:06:45;;;;;;;10.63;6.10;;;21.50;99.90;;;;;;5111351;28;20024;-47
2022/04/24 03:09:11;;;;;;;8.93;6.22;;;21.50;99.90;;;;;;5111467;28;20059;-46
2022/04/24 03:11:37;;;;;;;10.05;6.85;;;21.50;99.90;;;;;;5100448;28;20115;-48
2022/04/24 03:14:03;;;;;;;10.43;7.07;;;21.50;99.90;;;;;;5108362;28;20112;-47
2022/04/24 03:16:29;;;;;;;12.27;7.63;;;21.50;99.90;;;;;;5111470;28;20031;-47
2022/04/24 03:18:55;;;;;;;9.07;6.60;;;21.50;99.90;;;;;;5111339;28;20026;-49
2022/04/24 03:21:20;;;;;;;10.13;6.10;;;21.50;99.90;;;;;;5111353;28;20032;-46
2022/04/24 03:23:46;;;;;;;8.95;6.28;;;21.50;99.90;;;;;;5111516;28;20032;-46
2022/04/24 03:26:13;;;;;;;9.18;6.65;;;21.50;99.90;;;;;;5111173;28;20024;-46
2022/04/24 03:28:41;;;;;;;10.95;6.75;;;21.50;99.90;;;;;;5111522;28;20055;-46
2022/04/24 03:31:07;;;;;;;9.02;6.25;;;21.50;99.90;;;;;;5111455;28;20073;-47
2022/04/24 03:33:32;;;;;;;11.50;7.15;;;21.50;99.90;;;;;;5111379;28;20108;-47
2022/04/24 03:35:58;;;;;;;8.68;6.30;;;21.50;99.90;;;;;;5111140;28;20106;-47
2022/04/24 03:38:24;;;;;;;12.13;7.72;;;21.50;99.90;;;;;;5111245;28;20031;-47
2022/04/24 03:40:51;;;;;;;9.23;6.80;;;21.50;99.90;;;;;;5111244;28;20072;-47
2022/04/24 03:43:16;;;;;;;10.52;6.60;;;21.50;99.90;;;;;;5111003;28;20067;-47
2022/04/24 03:45:42;;;;;;;8.20;6.30;;;21.50;99.90;;;;;;5111443;28;20295;-47
2022/04/24 03:48:08;;;;;;;8.38;6.05;;;21.50;99.90;;;;;;5111142;28;20073;-47
2022/04/24 03:50:34;;;;;;;9.52;6.30;;;21.40;99.90;;;;;;5111202;28;20375;-47
2022/04/24 03:52:59;;;;;;;9.35;6.68;;;21.40;99.90;;;;;;5109959;28;20383;-47
2022/04/24 03:55:25;;;;;;;9.23;6.30;;;21.40;99.90;;;;;;5111347;28;20220;-47
2022/04/24 03:57:51;;;;;;;8.23;6.20;;;21.40;99.90;;;;;;5111124;28;20050;-49
2022/04/24 04:00:17;;;;;;;9.20;6.60;;;21.40;99.90;;;;;;5111249;28;20172;-48
2022/04/24 04:02:45;;;;;;;9.02;6.53;;;21.40;99.90;;;;;;5111641;28;20370;-49
2022/04/24 04:05:11;;;;;;;10.65;6.82;;;21.40;99.90;;;;;;5113794;28;20160;-48
2022/04/24 04:07:37;;;;;;;10.52;6.15;;;21.40;99.90;;;;;;5114852;28;20028;-49
2022/04/24 04:10:04;;;;;;;11.38;6.13;;;21.40;99.90;;;;;;5114552;28;20453;-48
2022/04/24 04:12:30;;;;;;;8.68;5.78;;;21.40;99.90;;;;;;5100236;27;20012;-49
2022/04/24 04:14:56;;;;;;;9.77;6.63;;;21.40;99.90;;;;;;5114644;28;20490;-47
2022/04/24 04:17:21;;;;;;;8.88;5.78;;;21.40;99.90;;;;;;5114488;28;20370;-48
2022/04/24 04:19:47;;;;;;;8.55;5.90;;;21.40;99.90;;;;;;5114596;28;20034;-48
2022/04/24 04:22:13;;;;;;;9.38;6.20;;;21.40;99.90;;;;;;5114454;28;20475;-47
2022/04/24 04:24:39;;;;;;;8.35;5.53;;;21.40;99.90;;;;;;5114714;28;20023;-48
2022/04/24 04:27:05;;;;;;;7.95;6.18;;;21.40;99.90;;;;;;5114569;28;20499;-47
2022/04/24 04:29:30;;;;;;;8.50;5.65;;;21.40;99.90;;;;;;5114341;28;20558;-47
2022/04/24 04:31:56;;;;;;;11.00;6.72;;;21.40;99.90;;;;;;5114377;28;20089;-47
2022/04/24 04:34:22;;;;;;;8.55;6.05;;;21.40;99.90;;;;;;5112888;28;20031;-47
2022/04/24 04:36:48;;;;;;;11.35;6.00;;;21.40;99.90;;;;;;5114175;28;20016;-47
2022/04/24 04:39:14;;;;;;;8.85;6.20;;;21.40;99.90;;;;;;5114191;28;20482;-47
2022/04/24 04:41:40;;;;;;;8.15;5.65;;;21.40;99.90;;;;;;5114339;28;20260;-47
2022/04/24 04:44:06;;;;;;;11.30;6.38;;;21.40;99.90;;;;;;5114007;28;20127;-48
2022/04/24 04:46:31;;;;;;;10.27;6.15;;;21.40;99.90;;;;;;5113843;28;20016;-47
2022/04/24 04:48:57;;;;;;;8.85;5.90;;;21.40;99.90;;;;;;5113877;28;20035;-46
2022/04/24 04:51:23;;;;;;;8.57;5.70;;;21.30;99.90;;;;;;5113873;28;20036;-48
2022/04/24 04:53:51;;;;;;;9.60;5.75;;;21.30;99.90;;;;;;5113912;28;20027;-47
2022/04/24 04:56:17;;;;;;;9.27;5.28;;;21.30;99.90;;;;;;5113736;28;20165;-47
2022/04/24 04:58:43;;;;;;;10.50;5.53;;;21.30;99.90;;;;;;5113896;28;20053;-47
2022/04/24 05:01:09;;;;;;;8.50;5.57;;;21.30;99.90;;;;;;5113460;28;20136;-48
2022/04/24 05:03:35;;;;;;;11.32;5.65;;;21.30;99.90;;;;;;5113496;28;20031;-47
2022/04/24 05:06:00;;;;;;;7.88;5.60;;;21.30;99.90;;;;;;5112347;28;20020;-47
2022/04/24 05:08:26;;;;;;;7.13;4.70;;;21.30;99.90;;;;;;5113477;28;20086;-47
2022/04/24 05:10:52;;;;;;;9.30;5.50;;;21.30;99.90;;;;;;5108608;28;20365;-47
2022/04/24 05:13:18;;;;;;;8.00;5.43;;;21.30;99.90;;;;;;5103984;28;20027;-47
2022/04/24 05:15:43;;;;;;;8.45;5.47;;;21.30;99.90;;;;;;5112540;28;20023;-49
2022/04/24 05:18:09;;;;;;;6.88;4.85;;;21.30;99.90;;;;;;5113525;28;20102;-49
2022/04/24 05:20:36;;;;;;;8.82;5.15;;;21.30;99.90;;;;;;5113214;28;20283;-49
2022/04/24 05:23:06;;;;;;;9.75;5.40;;;21.30;99.90;;;;;;5113131;28;20109;-50
2022/04/24 05:25:32;;;;;;;6.53;4.88;;;21.30;99.90;;;;;;5113321;28;20050;-49
2022/04/24 05:28:00;;;;;;;7.03;4.47;;;21.30;99.90;;;;;;5111655;28;20425;-50
2022/04/24 05:30:28;;;;;;;7.28;5.07;;;21.30;99.90;;;;;;5113073;28;20018;-49
2022/04/24 05:32:55;;;;;;;8.10;4.82;;;21.30;99.90;;;;;;5112944;28;20111;-48
2022/04/24 05:35:21;;;;;;;7.35;4.60;;;21.30;99.90;;;;;;5112993;28;20015;-49
2022/04/24 05:37:48;;;;;;;7.40;5.20;;;21.30;99.90;;;;;;5113217;28;20024;-48
2022/04/24 05:40:15;;;;;;;6.72;4.55;;;21.30;99.90;;;;;;5113251;28;20509;-48
2022/04/24 05:42:53;;;;;;;9.90;5.22;;;21.30;99.90;;;;;;5112733;28;20024;-47
2022/04/24 05:45:22;;;;;;;8.43;4.72;;;21.30;99.90;;;;;;5112892;28;20050;-47
2022/04/24 05:47:51;;;;;;;6.60;4.45;;;21.30;99.90;;;;;;5112954;28;20023;-47
2022/04/24 05:50:17;;;;;;;9.43;5.22;;;21.30;99.90;;;;;;5113038;28;20024;-47
2022/04/24 05:52:44;;;;;;;6.72;4.45;;;21.30;99.90;;;;;;5112913;28;20027;-48
2022/04/24 05:55:10;;;;;;;6.53;4.72;;;21.20;99.90;;;;;;5112413;28;20119;-47
2022/04/24 05:57:37;;;;;;;6.77;4.63;;;21.30;99.90;;;;;;5112938;28;20084;-48
2022/04/24 06:00:07;;;;;;;7.15;4.40;;;21.30;99.90;;;;;;5112168;28;20118;-48
2022/04/24 06:02:33;;;;;;;7.35;4.78;;;21.20;99.90;;;;;;5112371;28;20039;-47
2022/04/24 06:04:59;;;;;;;6.93;4.10;;;21.30;99.90;;;;;;5112405;28;20031;-48
2022/04/24 06:07:24;;;;;;;8.80;4.53;;;21.30;99.90;;;;;;5112397;28;20439;-49
2022/04/24 06:09:50;;;;;;;6.18;4.25;;;21.30;99.90;;;;;;5112416;28;20367;-49
2022/04/24 06:12:17;;;;;;;6.10;4.07;;;21.30;99.90;;;;;;5098112;28;20016;-47
2022/04/24 06:14:43;;;;;;;8.18;4.47;;;21.30;99.90;;;;;;5112212;28;20024;-47
2022/04/24 06:17:09;;;;;;;6.60;4.25;;;21.30;99.90;;;;;;5112170;28;20016;-48
2022/04/24 06:19:34;;;;;;;5.93;4.07;;;21.30;99.90;;;;;;5112360;28;20026;-50
2022/04/24 06:22:00;;;;;;;6.20;4.38;;;21.30;99.90;;;;;;5110897;28;20107;-48
2022/04/24 06:24:26;;;;;;;7.43;4.25;;;21.30;99.90;;;;;;5112001;27;20130;-49
2022/04/24 06:26:52;;;;;;;6.97;4.32;;;21.30;99.90;;;;;;5111947;28;20400;-49
2022/04/24 06:29:18;;;;;;;6.35;3.67;;;21.30;99.90;;;;;;5112094;28;20080;-48
2022/04/24 06:31:44;;;;;;;6.13;4.22;;;21.30;99.90;;;;;;5112003;28;20094;-48
2022/04/24 06:34:10;;;;;;;7.72;3.95;;;21.30;99.90;;;;;;5111751;28;20027;-48
2022/04/24 06:36:36;;;;;;;5.28;3.53;;;21.30;99.90;;;;;;5111960;28;20020;-48
2022/04/24 06:39:02;;;;;;;6.93;4.47;;;21.30;99.90;;;;;;5112111;28;20024;-48
2022/04/24 06:41:29;;;;;;;5.47;3.28;;;21.30;99.90;;;;;;5111711;28;20059;-48
2022/04/24 06:43:55;;;;;;;6.70;3.72;;;21.30;99.90;;;;;;5111685;27;20517;-49
2022/04/24 06:46:23;;;;;;;5.72;3.47;;;21.40;99.90;;;;;;5111861;28;20024;-48
2022/04/24 06:48:49;;;;;;;5.38;3.60;;;21.30;99.90;;;;;;5111886;28;20035;-48
2022/04/24 06:51:15;;;;;;;6.97;3.90;;;21.40;99.90;;;;;;5111509;28;20026;-48
2022/04/24 06:53:41;;;;;;;4.60;3.50;;;21.40;99.90;;;;;;5111695;28;20495;-49
2022/04/24 06:56:08;;;;;;;8.65;4.07;;;21.40;99.90;;;;;;5111681;28;20518;-48
2022/04/24 06:58:33;;;;;;;6.00;4.05;;;21.40;99.90;;;;;;5110218;28;20019;-48
2022/04/24 07:00:59;;;;;;;5.82;4.10;;;21.40;99.90;;;;;;5111356;28;20062;-49
2022/04/24 07:03:29;;;;;;;8.70;4.72;;;21.40;99.90;;;;;;5111526;28;20028;-48
2022/04/24 07:05:56;;;;;;;7.30;4.85;;;21.40;99.90;;;;;;5111647;28;20375;-48
2022/04/24 07:08:24;;;;;;;7.63;5.22;;;21.40;99.90;;;;;;5111708;28;20023;-48
2022/04/24 07:10:50;;;;;;;9.43;5.15;;;21.40;99.90;;;;;;5105978;28;20099;-48
2022/04/24 07:13:16;;;;;;;8.43;4.70;;;21.40;99.90;;;;;;5101812;28;20026;-48
2022/04/24 07:15:42;;;;;;;7.13;4.35;;;21.40;99.90;;;;;;5111274;28;20308;-47
2022/04/24 07:18:10;;;;;;;6.38;3.88;;;21.40;99.90;;;;;;5111417;28;20020;-47
2022/04/24 07:20:37;;;;;;;6.43;4.88;;;21.40;99.90;;;;;;5111172;28;20115;-47
2022/04/24 07:23:05;;;;;;;8.02;4.70;;;21.50;99.90;;;;;;5111317;28;20039;-48
2022/04/24 07:25:37;;;;;;;7.13;4.25;;;21.50;99.90;;;;;;5111367;28;20493;-47
2022/04/24 07:28:04;;;;;;;6.35;4.18;;;21.50;99.90;;;;;;5111313;28;20027;-47
2022/04/24 07:30:30;;;;;;;6.63;4.50;;;21.50;99.90;;;;;;5109970;28;20024;-47
2022/04/24 07:32:57;;;;;;;7.25;4.95;;;21.50;99.90;;;;;;5111065;28;20471;-47
2022/04/24 07:35:27;;;;;;;7.07;4.10;;;21.50;99.90;;;;;;5111465;28;20416;-48
2022/04/24 07:37:53;;;;;;;6.30;4.15;;;21.50;99.90;;;;;;5111372;28;20020;-47
2022/04/24 07:40:21;;;;;;;6.80;4.63;;;21.50;99.90;;;;;;5114793;28;20027;-47
2022/04/24 07:42:50;;;;;;;7.13;4.38;;;21.50;99.90;;;;;;5115002;28;20059;-47
2022/04/24 07:45:26;;;;;;;7.28;4.68;;;21.50;99.90;;;;;;5115133;28;20026;-47
2022/04/24 07:47:54;;;;;;;8.23;4.60;;;21.50;99.90;;;;;;5115139;28;20023;-47
2022/04/24 07:50:22;;;;;;;6.43;3.95;;;21.50;99.90;;;;;;5115404;28;20020;-48
2022/04/24 07:52:49;;;;;;;7.55;4.95;;;21.50;99.90;;;;;;5113899;28;20030;-47
2022/04/24 07:55:21;;;;;;;7.70;4.50;;;21.50;99.90;;;;;;5115016;28;20057;-48
2022/04/24 07:57:48;;;;;;;7.18;4.65;;;21.50;99.90;;;;;;5114989;28;20258;-48
2022/04/24 08:00:17;;;;;;;7.50;4.63;;;21.50;99.90;;;;;;5114683;28;20089;-48
2022/04/24 08:02:48;;;;;;;7.07;4.65;;;21.60;99.90;;;;;;5114638;28;20714;-49
2022/04/24 08:05:28;;;;;;;7.30;4.63;;;21.60;99.90;;;;;;5114525;28;20027;-48
2022/04/24 08:07:55;;;;;;;6.18;4.03;;;21.60;99.90;;;;;;5114842;28;20065;-48
2022/04/24 08:10:23;;;;;;;5.97;3.75;;;21.60;99.90;;;;;;5114153;28;20034;-48
2022/04/24 08:12:49;;;;;;;5.75;4.20;;;21.60;99.90;;;;;;5101123;28;20084;-50
2022/04/24 08:15:15;;;;;;;6.63;4.20;;;21.60;99.90;;;;;;5114658;28;20540;-50
2022/04/24 08:17:41;;;;;;;5.18;3.90;;;21.70;99.90;;;;;;5114507;28;20020;-50
2022/04/24 08:20:08;;;;;;;8.20;4.22;;;21.70;99.90;;;;;;5114415;28;20166;-50
2022/04/24 08:22:38;;;;;;;8.05;4.20;;;21.70;99.90;;;;;;5114343;28;20026;-48
2022/04/24 08:25:04;;;;;;;5.57;3.97;;;21.70;99.90;;;;;;5114393;28;20042;-47
2022/04/24 08:27:30;;;;;;;6.88;4.10;;;21.70;99.90;;;;;;5114240;28;20020;-48
2022/04/24 08:29:56;;;;;;;6.07;4.07;;;21.70;99.90;;;;;;5114586;28;20026;-48
2022/04/24 08:32:24;;;;;;;6.00;4.18;;;21.80;99.90;;;;;;5114303;28;20100;-47
2022/04/24 08:34:50;;;;;;;5.72;3.90;;;21.70;99.90;;;;;;5114059;28;20027;-48
2022/04/24 08:37:16;;;;;;;5.72;4.00;;;21.80;99.90;;;;;;5114095;28;20024;-47
2022/04/24 08:39:42;;;;;;;7.53;4.63;;;21.80;99.90;;;;;;5114037;28;20023;-48
2022/04/24 08:42:09;;;;;;;6.60;4.32;;;21.80;99.90;;;;;;5112668;28;20356;-48
2022/04/24 08:44:38;;;;;;;6.72;3.85;;;21.80;99.90;;;;;;5112576;28;20184;-48
2022/04/24 08:47:04;;;;;;;5.80;3.97;;;21.90;99.90;;;;;;5114145;28;20019;-48
2022/04/24 08:49:31;;;;;;;6.53;4.60;;;21.90;99.90;;;;;;5113687;28;20475;-48
2022/04/24 08:51:59;;;;;;;5.75;3.88;;;21.90;99.90;;;;;;5114184;28;20020;-49
2022/04/24 08:54:27;;;;;;;5.85;3.67;;;21.90;99.90;;;;;;5114040;28;20023;-47
2022/04/24 08:56:56;;;;;;;6.28;4.15;;;21.90;99.90;;;;;;5113668;28;20130;-47
2022/04/24 08:59:22;;;;;;;5.60;3.88;;;21.90;99.90;;;;;;5113633;27;20039;-46
2022/04/24 09:01:49;;;;;;;5.38;3.72;;;22.00;99.90;;;;;;5113605;28;20452;-47
2022/04/24 09:04:15;;;;;;;5.65;4.00;;;22.00;99.90;;;;;;5113589;28;20062;-46
2022/04/24 09:06:42;;;;;;;7.28;3.85;;;22.00;99.90;;;;;;5113479;28;20042;-46
2022/04/24 09:09:08;;;;;;;6.95;4.10;;;22.00;99.90;;;;;;5113537;28;20027;-47
2022/04/24 09:11:34;;;;;;;6.03;4.18;;;22.00;99.90;;;;;;5102680;27;20048;-47
2022/04/24 09:14:15;;;;;;;6.88;3.97;;;22.00;99.90;;;;;;5109960;28;20068;-48
2022/04/24 09:16:51;;;;;;;8.55;4.03;;;22.00;99.90;;;;;;5113663;28;20132;-47
2022/04/24 09:19:21;;;;;;;7.03;4.18;;;22.10;99.90;;;;;;5113184;28;20114;-47
2022/04/24 09:21:51;;;;;;;7.25;4.22;;;22.10;99.90;;;;;;5113393;28;20048;-49
2022/04/24 09:24:18;;;;;;;5.68;4.25;;;22.10;99.90;;;;;;5113092;28;20032;-49
2022/04/24 09:26:52;;;;;;;5.47;3.90;;;22.10;99.90;;;;;;5103746;27;20027;-49
2022/04/24 09:29:18;;;;;;;7.18;3.75;;;22.10;99.90;;;;;;5109489;28;20026;-50
2022/04/24 09:31:48;;;;;;;4.95;3.92;;;22.10;99.90;;;;;;5113285;28;20031;-49
2022/04/24 09:34:17;;;;;;;5.93;3.85;;;22.10;99.90;;;;;;5112897;28;20024;-49
2022/04/24 09:36:43;;;;;;;6.32;3.70;;;22.10;99.90;;;;;;5113007;28;20408;-48
2022/04/24 09:39:09;;;;;;;8.20;3.90;;;22.20;99.90;;;;;;5113066;28;20387;-49
2022/04/24 09:41:37;;;;;;;5.28;4.45;;;22.20;99.90;;;;;;5112854;28;20260;-49
2022/04/24 09:44:15;;;;;;;6.45;4.57;;;22.20;99.90;;;;;;5112852;28;20035;-49
2022/04/24 09:46:41;;;;;;;4.90;3.90;;;22.20;99.90;;;;;;5112656;28;20024;-50
2022/04/24 09:49:09;;;;;;;7.20;4.93;;;22.20;99.90;;;;;;5111689;28;20039;-47
2022/04/24 09:51:44;;;;;;;6.72;4.20;;;22.20;99.90;;;;;;5112636;28;20500;-47
2022/04/24 09:54:11;;;;;;;5.88;3.90;;;22.20;99.90;;;;;;5112766;28;20379;-49
2022/04/24 09:56:38;;;;;;;6.55;4.00;;;22.30;99.90;;;;;;5112526;28;20030;-50
2022/04/24 09:59:04;;;;;;;5.50;4.20;;;22.30;99.90;;;;;;5112685;28;20036;-50
2022/04/24 10:01:30;;;;;;;7.43;3.97;;;22.30;99.90;;;;;;5112180;28;20047;-50
2022/04/24 10:03:57;;;;;;;5.82;4.15;;;22.40;99.90;;;;;;5112624;28;20518;-48
2022/04/24 10:06:23;;;;;;;4.13;3.00;;;22.40;99.90;;;;;;5112505;28;20039;-48
2022/04/24 10:08:53;;;;;;;5.60;3.80;;;22.40;99.90;;;;;;5112468;28;20034;-48
2022/04/24 10:11:20;;;;;;;5.57;3.85;;;22.40;99.90;;;;;;5103566;28;20571;-48
2022/04/24 10:13:48;;;;;;;6.07;3.63;;;22.40;99.90;;;;;;5106839;28;20020;-49
2022/04/24 10:16:51;;;;;;;4.13;3.40;;;22.50;99.90;;;;;;5112428;28;20055;-48
2022/04/24 10:19:58;;;;;;;6.38;4.00;;;22.50;99.90;;;;;;5112084;28;20012;-48
2022/04/24 10:22:44;;;;;;;7.50;4.07;;;22.50;99.90;;;;;;5112001;28;20393;-46
2022/04/24 10:25:12;;;;;;;8.00;4.13;;;22.50;99.90;;;;;;5111602;28;20035;-47
2022/04/24 10:27:43;;;;;;;5.82;3.53;;;22.50;99.90;;;;;;5111970;28;20111;-47
2022/04/24 10:30:22;;;;;;;6.05;3.95;;;22.50;99.90;;;;;;5112079;28;20024;-50
2022/04/24 10:32:48;;;;;;;5.57;3.30;;;22.50;99.90;;;;;;5111816;28;20507;-50
2022/04/24 10:35:19;;;;;;;4.95;3.33;;;22.50;99.90;;;;;;5111815;28;20054;-49
2022/04/24 10:37:48;;;;;;;8.68;3.78;;;22.50;99.90;;;;;;5111839;28;20489;-48
2022/04/24 10:40:16;;;;;;;7.60;4.65;;;22.50;99.90;;;;;;5111796;28;20024;-50
2022/04/24 10:42:46;;;;;;;5.30;3.03;;;22.60;99.90;;;;;;5111525;28;20031;-49
2022/04/24 10:45:14;;;;;;;8.10;3.33;;;22.50;99.90;;;;;;5111850;28;20019;-49
2022/04/24 10:47:45;;;;;;;6.15;3.13;;;22.60;99.90;;;;;;5110655;28;20020;-49
2022/04/24 10:50:11;;;;;;;7.03;4.13;;;22.60;99.90;;;;;;5097891;28;20419;-49
2022/04/24 10:52:42;;;;;;;5.50;3.22;;;22.60;99.90;;;;;;5111829;28;20098;-49
2022/04/24 10:55:12;;;;;;;6.55;3.40;;;22.60;99.90;;;;;;5111581;28;20382;-47
2022/04/24 10:57:46;;;;;;;8.35;4.13;;;22.60;99.90;;;;;;5111723;28;20023;-47
2022/04/24 11:00:26;;;;;;;4.38;3.05;;;22.60;99.90;;;;;;5110029;28;20379;-47
2022/04/24 11:03:03;;;;;;;4.55;3.20;;;22.70;99.90;;;;;;5111503;28;20036;-47
2022/04/24 11:05:36;;;;;;;4.97;3.30;;;22.70;99.90;;;;;;5111571;28;20526;-48
2022/04/24 11:08:07;;;;;;;7.00;4.00;;;22.70;99.90;;;;;;5111719;28;20032;-48
2022/04/24 11:10:43;;;;;;;6.35;2.90;;;22.70;99.90;;;;;;5109487;28;20068;-49
2022/04/24 11:13:16;;;;;;;8.85;3.28;;;22.70;99.90;;;;;;5099634;28;20475;-48
2022/04/24 11:15:45;;;;;;;5.25;3.38;;;22.70;99.90;;;;;;5115527;28;20031;-47
2022/04/24 11:18:26;;;;;;;5.05;2.95;;;22.70;99.90;;;;;;5115726;28;20035;-46
2022/04/24 11:21:01;;;;;;;7.75;3.53;;;22.80;99.90;;;;;;5115515;28;20095;-47
2022/04/24 11:23:29;;;;;;;5.30;3.50;;;22.80;99.90;;;;;;5115565;28;20496;-46
2022/04/24 11:25:57;;;;;;;6.53;3.00;;;22.80;99.90;;;;;;5115463;28;20019;-47
2022/04/24 11:28:45;;;;;;;5.80;3.50;;;22.80;99.90;;;;;;5115595;27;20055;-47
2022/04/24 11:31:14;;;;;;;4.35;3.00;;;22.70;99.90;;;;;;5115393;28;20024;-47
2022/04/24 11:33:58;;;;;;;6.20;3.67;;;22.70;99.90;;;;;;5115447;28;20038;-46
2022/04/24 11:36:31;;;;;;;4.65;2.97;;;22.70;99.90;;;;;;5115297;28;20043;-46
2022/04/24 11:38:57;;;;;;;6.47;3.42;;;22.70;99.90;;;;;;5115501;28;20028;-47
2022/04/24 11:41:31;;;;;;;8.30;4.27;;;22.70;99.90;;;;;;5115138;28;20490;-46
2022/04/24 11:52:31;;;;;;;7.75;3.72;;;22.80;99.90;;;;;;5112598;28;20111;-48
2022/04/24 11:54:57;;;;;;;8.90;3.20;;;22.80;99.90;;;;;;5109644;28;20568;-49
2022/04/24 11:57:24;;;;;;;7.30;3.30;;;22.80;99.90;;;;;;5111484;28;20020;-48
2022/04/24 11:59:54;;;;;;;6.35;3.72;;;22.80;99.90;;;;;;5111936;28;20042;-49
2022/04/24 12:02:27;;;;;;;14.88;5.05;;;22.80;99.90;;;;;;5110649;28;20027;-49
2022/04/24 12:04:54;;;;;;;10.00;4.10;;;22.90;99.90;;;;;;5107854;28;20031;-49
2022/04/24 12:07:28;;;;;;;7.00;3.60;;;22.90;99.90;;;;;;5111330;28;20490;-48
2022/04/24 12:09:59;;;;;;;8.90;4.03;;;22.90;99.90;;;;;;5113756;28;20039;-47
2022/04/24 12:12:25;;;;;;;11.15;4.10;;;23.00;99.90;;;;;;5100333;28;20016;-54
2022/04/24 12:14:51;;;;;;;5.80;3.88;;;23.00;99.90;;;;;;5113128;28;20012;-49
2022/04/24 12:17:18;;;;;;;9.48;4.35;;;23.00;99.90;;;;;;5095757;28;20111;-48
2022/04/24 12:19:55;;;;;;;12.80;5.28;;;23.00;99.90;;;;;;5100683;28;20421;-50
2022/04/24 12:22:29;;;;;;;9.82;4.53;;;23.10;99.90;;;;;;5103113;28;21159;-48
2022/04/24 12:25:09;;;;;;;10.52;4.50;;;23.10;99.90;;;;;;5106826;28;20036;-51
2022/04/24 12:27:36;;;;;;;7.65;4.57;;;23.10;99.90;;;;;;5110875;28;20031;-49
2022/04/24 12:30:06;;;;;;;12.82;5.07;;;23.10;99.90;;;;;;5108385;28;20036;-49
2022/04/24 12:32:34;;;;;;;9.25;5.13;;;23.10;99.90;;;;;;5108088;28;20038;-48
2022/04/24 12:35:00;;;;;;;10.95;5.40;;;23.10;99.90;;;;;;5099945;28;20028;-48
2022/04/24 12:37:34;;;;;;;19.98;6.95;;;23.20;99.90;;;;;;5110884;28;20549;-48
2022/04/24 12:40:01;;;;;;;10.88;6.13;;;23.20;99.90;;;;;;5102180;28;20027;-50
2022/04/24 12:42:27;;;;;;;12.60;6.10;;;23.20;99.90;;;;;;5108771;28;20036;-50
2022/04/24 12:44:54;;;;;;;15.82;6.60;;;23.20;99.90;;;;;;5111891;28;20467;-51
2022/04/24 12:47:21;;;;;;;12.55;6.25;;;23.20;99.90;;;;;;5113068;28;20187;-48
2022/04/24 12:49:50;;;;;;;14.68;6.70;;;23.30;99.90;;;;;;5106515;28;20287;-49
2022/04/24 12:52:20;;;;;;;11.25;6.00;;;23.30;99.90;;;;;;5095532;28;20028;-49
2022/04/24 12:54:46;;;;;;;11.90;6.60;;;23.30;99.90;;;;;;5093220;28;20016;-49